This is the latest recevied weather packets stored in our database for station/object K0PFX-8. If no packets are shown the sender has not sent any weather packets the latest 10 day(s).
| Time | Temp. | Humidity | Pressure | Rain* | Wind** | Luminosity | Snow |
|---|---|---|---|---|---|---|---|
| 1777976370 | 13.33° C | 83% | 1008.9 hPa | 0.25 mm | 2.24 m/s, 359° | - | - |
| 1777975469 | 13.89° C | 85% | 1008.7 hPa | 0.25 mm | 3.13 m/s, 321° | - | - |
| 1777973669 | 15.56° C | 79% | 1008.2 hPa | 0 mm | 2.24 m/s, 357° | - | - |
| 1777972771 | 16.11° C | 79% | 1007.6 hPa | 0 mm | 2.68 m/s, 319° | - | - |
| 1777971870 | 16.11° C | 81% | 1007.3 hPa | 0 mm | 0 m/s | - | - |
| 1777970971 | 16.67° C | 81% | 1006.7 hPa | 0 mm | 0 m/s | - | - |
| 1777970070 | 17.22° C | 80% | 1006.5 hPa | 0 mm | 0 m/s | - | - |
| 1777969172 | 17.78° C | 73% | 1006.4 hPa | 0 mm | 0 m/s | - | - |
| 1777968271 | 18.33° C | 63% | 1006.6 hPa | 0 mm | 0 m/s | - | - |
| 1777967373 | 18.33° C | 60% | 1006.9 hPa | 0 mm | 0 m/s | - | - |
| 1777966471 | 18.33° C | 59% | 1007 hPa | 0 mm | 0.89 m/s, 68° | - | - |
| 1777965573 | 18.33° C | 58% | 1007.1 hPa | 0 mm | 0 m/s | - | - |
| 1777964673 | 18.33° C | 56% | 1007.2 hPa | 0 mm | 0.89 m/s, 30° | - | - |
| 1777963773 | 18.89° C | 51% | 1007.4 hPa | 0 mm | 4.02 m/s, 17° | - | - |
| 1777962872 | 20.56° C | 47% | 1007.4 hPa | 0 mm | 4.47 m/s, 335° | - | - |
| 1777961974 | 21.11° C | 49% | 1005.5 hPa | 0 mm | 4.02 m/s, 229° | - | - |
| 1777961073 | 21.67° C | 48% | 1005.3 hPa | 0 mm | 4.47 m/s, 210° | - | - |
| 1777960177 | 21.67° C | - | - | 0 mm | 4.02 m/s, 238° | - | - |
| 1777960175 | 21.67° C | 48% | 1005.2 hPa | 0 mm | 4.02 m/s, 238° | - | - |
| 1777959273 | 21.67° C | 48% | 1005.2 hPa | 0 mm | 4.92 m/s, 250° | - | - |
| 1777958375 | 21.67° C | 48% | 1004.8 hPa | 0 mm | 4.47 m/s, 243° | - | - |
| 1777957474 | 21.67° C | 47% | 1004.4 hPa | 0 mm | 4.02 m/s, 242° | - | - |
| 1777956576 | 21.67° C | 47% | 1004.3 hPa | 0 mm | 3.13 m/s, 255° | - | - |
| 1777955676 | 21.67° C | 47% | 1004.1 hPa | 0 mm | 4.02 m/s, 232° | - | - |
| 1777954776 | 21.67° C | 47% | 1003.9 hPa | 0 mm | 3.58 m/s, 219° | - | - |
* Rain latest hour (hover to see other rain measurements)
** Current wind speed in m/s (hover to see current wind gust speed)